Terminal Aerodrome Forecast
Issued by NWS

Home | Current Version | Previous Version | Text Only | Print | Product List | Glossary On
Versions: 1 2 3 4 5 6 7 8 9 10 11 12 13 14 15 16
604
FTUS41 KGYX 180416 AAA
TAFRKD
TAF AMD
KRKD 180416Z 1804/1824 06011KT P6SM SCT030 OVC100
      TEMPO 1806/1808 3SM -SN BKN030 OVC070
     FM180800 07012KT 1 1/2SM -SN BKN025 OVC040
     FM181000 07010KT 2SM -SNRA OVC012
     FM181600 06012KT 4SM BR OVC006=

USA.gov is the U.S. government's official web portal to all federal, state and local government web resources and services.